sensor_id;sensor_type;location;lat;lon;timestamp;P1;durP1;ratioP1;P2;durP2;ratioP2
12484;SDS011;6307;46.804;11.580;2022-08-19T00:00:47;11.53;;;5.93;;
12484;SDS011;6307;46.804;11.580;2022-08-19T00:03:15;7.47;;;5.87;;
12484;SDS011;6307;46.804;11.580;2022-08-19T00:05:41;9.97;;;6.70;;
12484;SDS011;6307;46.804;11.580;2022-08-19T00:08:07;8.07;;;6.90;;
12484;SDS011;6307;46.804;11.580;2022-08-19T00:10:33;8.30;;;6.00;;
12484;SDS011;6307;46.804;11.580;2022-08-19T00:12:59;7.30;;;5.67;;
12484;SDS011;6307;46.804;11.580;2022-08-19T00:15:26;9.77;;;5.73;;
12484;SDS011;6307;46.804;11.580;2022-08-19T00:17:52;10.27;;;6.83;;
12484;SDS011;6307;46.804;11.580;2022-08-19T00:20:20;7.27;;;5.40;;
12484;SDS011;6307;46.804;11.580;2022-08-19T00:22:49;7.60;;;5.97;;
12484;SDS011;6307;46.804;11.580;2022-08-19T00:25:16;11.80;;;8.63;;
12484;SDS011;6307;46.804;11.580;2022-08-19T00:27:43;8.97;;;6.80;;
12484;SDS011;6307;46.804;11.580;2022-08-19T00:30:09;7.40;;;5.60;;
12484;SDS011;6307;46.804;11.580;2022-08-19T00:32:37;7.37;;;4.80;;
12484;SDS011;6307;46.804;11.580;2022-08-19T00:35:04;4.00;;;3.70;;
12484;SDS011;6307;46.804;11.580;2022-08-19T00:37:31;4.27;;;3.47;;
12484;SDS011;6307;46.804;11.580;2022-08-19T00:39:59;3.70;;;2.90;;
12484;SDS011;6307;46.804;11.580;2022-08-19T00:42:27;5.30;;;3.20;;
12484;SDS011;6307;46.804;11.580;2022-08-19T00:44:53;4.20;;;3.80;;
12484;SDS011;6307;46.804;11.580;2022-08-19T00:47:19;5.63;;;4.10;;
12484;SDS011;6307;46.804;11.580;2022-08-19T00:49:54;6.23;;;4.70;;
12484;SDS011;6307;46.804;11.580;2022-08-19T00:52:24;8.33;;;4.93;;
12484;SDS011;6307;46.804;11.580;2022-08-19T00:55:02;5.27;;;4.77;;
12484;SDS011;6307;46.804;11.580;2022-08-19T00:57:39;4.97;;;4.43;;
12484;SDS011;6307;46.804;11.580;2022-08-19T01:00:11;6.60;;;4.00;;
12484;SDS011;6307;46.804;11.580;2022-08-19T01:02:42;3.87;;;3.33;;
12484;SDS011;6307;46.804;11.580;2022-08-19T01:05:10;5.43;;;4.07;;
12484;SDS011;6307;46.804;11.580;2022-08-19T01:07:45;4.03;;;3.63;;
12484;SDS011;6307;46.804;11.580;2022-08-19T01:10:16;5.43;;;3.87;;
12484;SDS011;6307;46.804;11.580;2022-08-19T01:12:48;5.67;;;4.30;;
12484;SDS011;6307;46.804;11.580;2022-08-19T01:15:17;8.03;;;4.07;;
12484;SDS011;6307;46.804;11.580;2022-08-19T01:17:48;7.40;;;3.83;;
12484;SDS011;6307;46.804;11.580;2022-08-19T01:20:18;3.87;;;3.47;;
12484;SDS011;6307;46.804;11.580;2022-08-19T01:22:48;3.60;;;3.30;;
12484;SDS011;6307;46.804;11.580;2022-08-19T01:25:19;4.50;;;4.10;;
12484;SDS011;6307;46.804;11.580;2022-08-19T01:28:17;4.93;;;4.10;;
12484;SDS011;6307;46.804;11.580;2022-08-19T01:31:02;9.20;;;4.10;;
12484;SDS011;6307;46.804;11.580;2022-08-19T01:33:29;5.83;;;4.57;;
12484;SDS011;6307;46.804;11.580;2022-08-19T01:36:22;5.77;;;3.40;;
12484;SDS011;6307;46.804;11.580;2022-08-19T01:39:07;4.87;;;4.37;;
12484;SDS011;6307;46.804;11.580;2022-08-19T01:41:37;7.07;;;5.17;;
12484;SDS011;6307;46.804;11.580;2022-08-19T01:44:03;8.60;;;4.77;;
12484;SDS011;6307;46.804;11.580;2022-08-19T01:46:31;5.70;;;3.80;;
12484;SDS011;6307;46.804;11.580;2022-08-19T01:48:58;6.40;;;4.87;;
12484;SDS011;6307;46.804;11.580;2022-08-19T01:51:26;4.47;;;3.97;;
12484;SDS011;6307;46.804;11.580;2022-08-19T01:53:52;5.70;;;4.23;;
12484;SDS011;6307;46.804;11.580;2022-08-19T01:56:19;4.33;;;3.93;;
12484;SDS011;6307;46.804;11.580;2022-08-19T01:58:49;4.77;;;4.27;;
12484;SDS011;6307;46.804;11.580;2022-08-19T02:01:26;4.20;;;3.40;;
12484;SDS011;6307;46.804;11.580;2022-08-19T02:03:56;4.77;;;3.80;;
12484;SDS011;6307;46.804;11.580;2022-08-19T02:06:25;4.73;;;3.93;;
12484;SDS011;6307;46.804;11.580;2022-08-19T02:08:52;5.57;;;3.33;;
12484;SDS011;6307;46.804;11.580;2022-08-19T02:11:26;3.97;;;3.43;;
12484;SDS011;6307;46.804;11.580;2022-08-19T02:13:56;4.10;;;3.70;;
12484;SDS011;6307;46.804;11.580;2022-08-19T02:16:25;5.60;;;4.93;;
12484;SDS011;6307;46.804;11.580;2022-08-19T02:18:51;8.67;;;5.40;;
12484;SDS011;6307;46.804;11.580;2022-08-19T02:21:18;8.40;;;5.60;;
12484;SDS011;6307;46.804;11.580;2022-08-19T02:23:47;7.80;;;5.30;;
12484;SDS011;6307;46.804;11.580;2022-08-19T02:26:15;7.83;;;5.77;;
12484;SDS011;6307;46.804;11.580;2022-08-19T02:28:43;8.60;;;6.33;;
12484;SDS011;6307;46.804;11.580;2022-08-19T02:31:10;7.20;;;5.13;;
12484;SDS011;6307;46.804;11.580;2022-08-19T02:33:42;4.90;;;4.40;;
12484;SDS011;6307;46.804;11.580;2022-08-19T02:36:10;5.03;;;4.53;;
12484;SDS011;6307;46.804;11.580;2022-08-19T02:38:38;6.03;;;5.30;;
12484;SDS011;6307;46.804;11.580;2022-08-19T02:41:17;7.83;;;7.03;;
12484;SDS011;6307;46.804;11.580;2022-08-19T02:43:47;8.43;;;7.50;;
12484;SDS011;6307;46.804;11.580;2022-08-19T02:46:18;8.30;;;5.57;;
12484;SDS011;6307;46.804;11.580;2022-08-19T02:48:50;4.90;;;4.50;;
12484;SDS011;6307;46.804;11.580;2022-08-19T02:51:19;7.57;;;5.47;;
12484;SDS011;6307;46.804;11.580;2022-08-19T02:53:49;8.17;;;6.47;;
12484;SDS011;6307;46.804;11.580;2022-08-19T02:56:16;8.87;;;7.50;;
12484;SDS011;6307;46.804;11.580;2022-08-19T02:58:43;7.30;;;5.70;;
12484;SDS011;6307;46.804;11.580;2022-08-19T03:01:10;7.70;;;6.33;;
12484;SDS011;6307;46.804;11.580;2022-08-19T03:03:48;10.03;;;8.00;;
12484;SDS011;6307;46.804;11.580;2022-08-19T03:06:15;10.47;;;7.20;;
12484;SDS011;6307;46.804;11.580;2022-08-19T03:08:44;13.37;;;8.63;;
12484;SDS011;6307;46.804;11.580;2022-08-19T03:11:15;11.70;;;7.83;;
12484;SDS011;6307;46.804;11.580;2022-08-19T03:13:47;9.93;;;7.60;;
12484;SDS011;6307;46.804;11.580;2022-08-19T03:16:15;11.07;;;7.73;;
12484;SDS011;6307;46.804;11.580;2022-08-19T03:18:47;8.63;;;6.63;;
12484;SDS011;6307;46.804;11.580;2022-08-19T03:21:18;10.67;;;6.10;;
12484;SDS011;6307;46.804;11.580;2022-08-19T03:23:46;10.07;;;8.40;;
12484;SDS011;6307;46.804;11.580;2022-08-19T03:26:13;9.97;;;8.63;;
12484;SDS011;6307;46.804;11.580;2022-08-19T03:28:40;9.67;;;7.10;;
12484;SDS011;6307;46.804;11.580;2022-08-19T03:31:12;10.63;;;9.33;;
12484;SDS011;6307;46.804;11.580;2022-08-19T03:33:39;12.70;;;10.33;;
12484;SDS011;6307;46.804;11.580;2022-08-19T03:36:08;10.80;;;9.60;;
12484;SDS011;6307;46.804;11.580;2022-08-19T03:38:37;12.43;;;9.53;;
12484;SDS011;6307;46.804;11.580;2022-08-19T03:41:10;11.63;;;10.40;;
12484;SDS011;6307;46.804;11.580;2022-08-19T03:43:42;11.67;;;9.40;;
12484;SDS011;6307;46.804;11.580;2022-08-19T03:46:13;13.87;;;9.40;;
12484;SDS011;6307;46.804;11.580;2022-08-19T03:48:45;9.80;;;7.43;;
12484;SDS011;6307;46.804;11.580;2022-08-19T03:51:27;8.80;;;7.13;;
12484;SDS011;6307;46.804;11.580;2022-08-19T03:54:00;8.53;;;7.40;;
12484;SDS011;6307;46.804;11.580;2022-08-19T03:56:29;10.53;;;7.03;;
12484;SDS011;6307;46.804;11.580;2022-08-19T03:58:56;8.20;;;7.30;;
12484;SDS011;6307;46.804;11.580;2022-08-19T04:01:25;8.87;;;6.60;;
12484;SDS011;6307;46.804;11.580;2022-08-19T04:03:53;8.60;;;5.80;;
12484;SDS011;6307;46.804;11.580;2022-08-19T04:06:26;9.83;;;6.90;;
12484;SDS011;6307;46.804;11.580;2022-08-19T04:09:00;9.80;;;7.10;;
12484;SDS011;6307;46.804;11.580;2022-08-19T04:11:33;9.03;;;6.60;;
12484;SDS011;6307;46.804;11.580;2022-08-19T04:14:09;10.77;;;6.30;;
12484;SDS011;6307;46.804;11.580;2022-08-19T04:16:45;8.10;;;7.30;;
12484;SDS011;6307;46.804;11.580;2022-08-19T04:19:13;8.00;;;6.47;;
12484;SDS011;6307;46.804;11.580;2022-08-19T04:21:45;6.93;;;5.03;;
12484;SDS011;6307;46.804;11.580;2022-08-19T04:24:14;7.77;;;4.00;;
12484;SDS011;6307;46.804;11.580;2022-08-19T04:26:41;7.90;;;7.10;;
12484;SDS011;6307;46.804;11.580;2022-08-19T04:29:12;9.00;;;6.77;;
12484;SDS011;6307;46.804;11.580;2022-08-19T04:31:46;7.43;;;5.90;;
12484;SDS011;6307;46.804;11.580;2022-08-19T04:34:15;8.47;;;6.70;;
12484;SDS011;6307;46.804;11.580;2022-08-19T04:36:48;11.20;;;8.57;;
12484;SDS011;6307;46.804;11.580;2022-08-19T04:39:18;8.03;;;7.23;;
12484;SDS011;6307;46.804;11.580;2022-08-19T04:42:08;7.80;;;7.10;;
12484;SDS011;6307;46.804;11.580;2022-08-19T04:44:53;12.07;;;7.93;;
12484;SDS011;6307;46.804;11.580;2022-08-19T04:47:20;10.03;;;8.10;;
12484;SDS011;6307;46.804;11.580;2022-08-19T04:49:46;10.70;;;7.10;;
12484;SDS011;6307;46.804;11.580;2022-08-19T04:52:13;10.20;;;7.67;;
12484;SDS011;6307;46.804;11.580;2022-08-19T04:54:39;7.03;;;6.20;;
12484;SDS011;6307;46.804;11.580;2022-08-19T04:57:09;8.50;;;6.17;;
12484;SDS011;6307;46.804;11.580;2022-08-19T04:59:36;5.33;;;4.83;;
12484;SDS011;6307;46.804;11.580;2022-08-19T05:02:03;7.20;;;5.33;;
12484;SDS011;6307;46.804;11.580;2022-08-19T05:04:32;8.93;;;5.83;;
12484;SDS011;6307;46.804;11.580;2022-08-19T05:06:58;6.47;;;5.50;;
12484;SDS011;6307;46.804;11.580;2022-08-19T05:09:25;4.53;;;4.13;;
12484;SDS011;6307;46.804;11.580;2022-08-19T05:11:52;4.83;;;4.00;;
12484;SDS011;6307;46.804;11.580;2022-08-19T05:14:18;7.93;;;5.17;;
12484;SDS011;6307;46.804;11.580;2022-08-19T05:16:46;4.53;;;4.10;;
12484;SDS011;6307;46.804;11.580;2022-08-19T05:19:12;4.43;;;4.03;;
12484;SDS011;6307;46.804;11.580;2022-08-19T05:21:59;6.40;;;3.83;;
12484;SDS011;6307;46.804;11.580;2022-08-19T05:24:44;5.33;;;4.53;;
12484;SDS011;6307;46.804;11.580;2022-08-19T05:27:10;6.03;;;5.20;;
12484;SDS011;6307;46.804;11.580;2022-08-19T05:29:37;6.53;;;4.00;;
12484;SDS011;6307;46.804;11.580;2022-08-19T05:32:04;8.83;;;6.20;;
12484;SDS011;6307;46.804;11.580;2022-08-19T05:34:35;8.13;;;6.07;;
12484;SDS011;6307;46.804;11.580;2022-08-19T05:37:03;7.00;;;5.20;;
12484;SDS011;6307;46.804;11.580;2022-08-19T05:39:30;6.03;;;5.27;;
12484;SDS011;6307;46.804;11.580;2022-08-19T05:42:01;6.00;;;4.80;;
12484;SDS011;6307;46.804;11.580;2022-08-19T05:44:35;6.47;;;4.30;;
12484;SDS011;6307;46.804;11.580;2022-08-19T05:47:10;5.43;;;4.80;;
12484;SDS011;6307;46.804;11.580;2022-08-19T05:49:39;7.97;;;5.40;;
12484;SDS011;6307;46.804;11.580;2022-08-19T05:52:09;5.27;;;4.70;;
12484;SDS011;6307;46.804;11.580;2022-08-19T05:54:40;4.93;;;4.37;;
12484;SDS011;6307;46.804;11.580;2022-08-19T05:57:07;5.13;;;4.37;;
12484;SDS011;6307;46.804;11.580;2022-08-19T05:59:35;4.90;;;4.40;;
12484;SDS011;6307;46.804;11.580;2022-08-19T06:02:02;4.63;;;4.23;;
12484;SDS011;6307;46.804;11.580;2022-08-19T06:04:31;4.93;;;3.80;;
12484;SDS011;6307;46.804;11.580;2022-08-19T06:06:58;5.33;;;3.60;;
12484;SDS011;6307;46.804;11.580;2022-08-19T06:09:26;4.43;;;3.67;;
12484;SDS011;6307;46.804;11.580;2022-08-19T06:11:54;3.40;;;2.80;;
12484;SDS011;6307;46.804;11.580;2022-08-19T06:14:25;3.57;;;2.47;;
12484;SDS011;6307;46.804;11.580;2022-08-19T06:16:55;3.90;;;3.00;;
12484;SDS011;6307;46.804;11.580;2022-08-19T06:19:25;5.23;;;3.30;;
12484;SDS011;6307;46.804;11.580;2022-08-19T06:21:52;2.63;;;2.43;;
12484;SDS011;6307;46.804;11.580;2022-08-19T06:24:22;4.43;;;3.10;;
12484;SDS011;6307;46.804;11.580;2022-08-19T06:26:52;4.40;;;2.83;;
12484;SDS011;6307;46.804;11.580;2022-08-19T06:29:22;3.97;;;2.90;;
12484;SDS011;6307;46.804;11.580;2022-08-19T06:31:52;5.80;;;3.30;;
12484;SDS011;6307;46.804;11.580;2022-08-19T06:34:22;3.83;;;2.80;;
12484;SDS011;6307;46.804;11.580;2022-08-19T06:36:50;3.23;;;2.90;;
12484;SDS011;6307;46.804;11.580;2022-08-19T06:39:20;6.73;;;3.20;;
12484;SDS011;6307;46.804;11.580;2022-08-19T06:41:51;3.57;;;2.77;;
12484;SDS011;6307;46.804;11.580;2022-08-19T06:44:22;3.43;;;2.50;;
12484;SDS011;6307;46.804;11.580;2022-08-19T06:46:51;5.73;;;2.73;;
12484;SDS011;6307;46.804;11.580;2022-08-19T06:49:18;2.93;;;2.60;;
12484;SDS011;6307;46.804;11.580;2022-08-19T06:51:45;6.53;;;3.43;;
12484;SDS011;6307;46.804;11.580;2022-08-19T06:54:13;11.30;;;3.20;;
12484;SDS011;6307;46.804;11.580;2022-08-19T06:56:41;3.30;;;2.70;;
12484;SDS011;6307;46.804;11.580;2022-08-19T06:59:11;2.70;;;2.00;;
12484;SDS011;6307;46.804;11.580;2022-08-19T07:01:45;2.83;;;1.80;;
12484;SDS011;6307;46.804;11.580;2022-08-19T07:04:17;3.00;;;1.87;;
12484;SDS011;6307;46.804;11.580;2022-08-19T07:06:49;3.57;;;1.80;;
12484;SDS011;6307;46.804;11.580;2022-08-19T07:09:21;2.27;;;1.60;;
12484;SDS011;6307;46.804;11.580;2022-08-19T07:11:49;3.43;;;1.90;;
12484;SDS011;6307;46.804;11.580;2022-08-19T07:14:20;2.10;;;1.60;;
12484;SDS011;6307;46.804;11.580;2022-08-19T07:16:50;4.07;;;1.50;;
12484;SDS011;6307;46.804;11.580;2022-08-19T07:19:20;1.70;;;1.50;;
12484;SDS011;6307;46.804;11.580;2022-08-19T07:21:49;2.47;;;1.50;;
12484;SDS011;6307;46.804;11.580;2022-08-19T07:24:18;1.57;;;1.40;;
12484;SDS011;6307;46.804;11.580;2022-08-19T07:26:48;2.07;;;1.40;;
12484;SDS011;6307;46.804;11.580;2022-08-19T07:29:17;1.40;;;1.30;;
12484;SDS011;6307;46.804;11.580;2022-08-19T07:31:48;3.13;;;1.37;;
12484;SDS011;6307;46.804;11.580;2022-08-19T07:34:16;3.47;;;1.57;;
12484;SDS011;6307;46.804;11.580;2022-08-19T07:36:43;2.23;;;1.33;;
12484;SDS011;6307;46.804;11.580;2022-08-19T07:39:12;2.33;;;1.30;;
12484;SDS011;6307;46.804;11.580;2022-08-19T07:41:43;1.80;;;1.27;;
12484;SDS011;6307;46.804;11.580;2022-08-19T07:44:11;2.93;;;1.13;;
12484;SDS011;6307;46.804;11.580;2022-08-19T07:46:42;2.60;;;1.10;;
12484;SDS011;6307;46.804;11.580;2022-08-19T07:49:15;3.83;;;1.13;;
12484;SDS011;6307;46.804;11.580;2022-08-19T07:51:44;3.27;;;1.30;;
12484;SDS011;6307;46.804;11.580;2022-08-19T07:54:17;3.43;;;1.30;;
12484;SDS011;6307;46.804;11.580;2022-08-19T07:56:45;2.00;;;1.23;;
12484;SDS011;6307;46.804;11.580;2022-08-19T07:59:11;2.00;;;1.30;;
12484;SDS011;6307;46.804;11.580;2022-08-19T08:01:38;2.20;;;1.10;;
12484;SDS011;6307;46.804;11.580;2022-08-19T08:04:06;2.60;;;1.10;;
12484;SDS011;6307;46.804;11.580;2022-08-19T08:06:52;3.90;;;1.30;;
12484;SDS011;6307;46.804;11.580;2022-08-19T08:09:38;2.10;;;1.10;;
12484;SDS011;6307;46.804;11.580;2022-08-19T08:12:09;1.60;;;1.10;;
12484;SDS011;6307;46.804;11.580;2022-08-19T08:15:00;1.70;;;1.10;;
12484;SDS011;6307;46.804;11.580;2022-08-19T08:17:32;1.13;;;1.00;;
12484;SDS011;6307;46.804;11.580;2022-08-19T08:19:59;1.17;;;0.90;;
12484;SDS011;6307;46.804;11.580;2022-08-19T08:22:25;2.73;;;1.30;;
12484;SDS011;6307;46.804;11.580;2022-08-19T08:25:14;1.87;;;1.20;;
12484;SDS011;6307;46.804;11.580;2022-08-19T08:27:49;2.03;;;1.00;;
12484;SDS011;6307;46.804;11.580;2022-08-19T08:30:18;1.13;;;1.00;;
12484;SDS011;6307;46.804;11.580;2022-08-19T08:32:49;2.67;;;1.00;;
12484;SDS011;6307;46.804;11.580;2022-08-19T08:35:17;2.60;;;1.33;;
12484;SDS011;6307;46.804;11.580;2022-08-19T08:37:48;1.67;;;0.90;;
12484;SDS011;6307;46.804;11.580;2022-08-19T08:40:19;1.10;;;0.80;;
12484;SDS011;6307;46.804;11.580;2022-08-19T08:45:50;1.67;;;1.10;;
12484;SDS011;6307;46.804;11.580;2022-08-19T08:51:19;4.30;;;1.00;;
12484;SDS011;6307;46.804;11.580;2022-08-19T08:53:52;2.30;;;0.80;;
12484;SDS011;6307;46.804;11.580;2022-08-19T08:56:19;3.20;;;1.30;;
12484;SDS011;6307;46.804;11.580;2022-08-19T09:01:58;2.20;;;0.97;;
12484;SDS011;6307;46.804;11.580;2022-08-19T09:04:25;2.87;;;1.00;;
12484;SDS011;6307;46.804;11.580;2022-08-19T09:09:45;2.93;;;0.90;;
12484;SDS011;6307;46.804;11.580;2022-08-19T09:15:25;2.80;;;1.20;;
12484;SDS011;6307;46.804;11.580;2022-08-19T09:18:01;3.03;;;1.17;;
12484;SDS011;6307;46.804;11.580;2022-08-19T09:20:29;2.53;;;0.90;;
12484;SDS011;6307;46.804;11.580;2022-08-19T09:22:57;2.67;;;1.30;;
12484;SDS011;6307;46.804;11.580;2022-08-19T09:25:23;3.77;;;1.13;;
12484;SDS011;6307;46.804;11.580;2022-08-19T09:27:50;3.27;;;1.00;;
12484;SDS011;6307;46.804;11.580;2022-08-19T09:30:23;2.07;;;1.00;;
12484;SDS011;6307;46.804;11.580;2022-08-19T09:32:52;1.63;;;1.03;;
12484;SDS011;6307;46.804;11.580;2022-08-19T09:35:20;2.83;;;1.00;;
12484;SDS011;6307;46.804;11.580;2022-08-19T09:37:49;3.03;;;1.10;;
12484;SDS011;6307;46.804;11.580;2022-08-19T09:40:16;1.73;;;0.93;;
12484;SDS011;6307;46.804;11.580;2022-08-19T09:42:44;3.20;;;1.10;;
12484;SDS011;6307;46.804;11.580;2022-08-19T09:45:12;1.87;;;0.90;;
12484;SDS011;6307;46.804;11.580;2022-08-19T09:47:40;2.37;;;1.00;;
12484;SDS011;6307;46.804;11.580;2022-08-19T09:50:07;2.33;;;0.93;;
12484;SDS011;6307;46.804;11.580;2022-08-19T09:52:37;2.67;;;1.13;;
12484;SDS011;6307;46.804;11.580;2022-08-19T09:55:04;1.80;;;0.90;;
12484;SDS011;6307;46.804;11.580;2022-08-19T09:57:33;5.67;;;1.20;;
12484;SDS011;6307;46.804;11.580;2022-08-19T10:00:00;1.20;;;0.80;;
12484;SDS011;6307;46.804;11.580;2022-08-19T10:02:32;1.80;;;0.90;;
12484;SDS011;6307;46.804;11.580;2022-08-19T10:04:59;2.70;;;1.03;;
12484;SDS011;6307;46.804;11.580;2022-08-19T10:07:43;2.87;;;1.10;;
12484;SDS011;6307;46.804;11.580;2022-08-19T10:10:10;2.90;;;0.80;;
12484;SDS011;6307;46.804;11.580;2022-08-19T10:12:36;1.33;;;0.87;;
12484;SDS011;6307;46.804;11.580;2022-08-19T10:15:04;2.27;;;1.00;;
12484;SDS011;6307;46.804;11.580;2022-08-19T10:17:31;3.70;;;1.00;;
12484;SDS011;6307;46.804;11.580;2022-08-19T10:20:00;4.50;;;1.30;;
12484;SDS011;6307;46.804;11.580;2022-08-19T10:22:29;1.63;;;1.00;;
12484;SDS011;6307;46.804;11.580;2022-08-19T10:24:56;2.60;;;0.97;;
12484;SDS011;6307;46.804;11.580;2022-08-19T10:27:23;2.40;;;1.17;;
12484;SDS011;6307;46.804;11.580;2022-08-19T10:29:49;1.43;;;0.80;;
12484;SDS011;6307;46.804;11.580;2022-08-19T10:32:15;2.80;;;1.03;;
12484;SDS011;6307;46.804;11.580;2022-08-19T10:34:41;3.53;;;1.20;;
12484;SDS011;6307;46.804;11.580;2022-08-19T10:37:08;1.57;;;0.83;;
12484;SDS011;6307;46.804;11.580;2022-08-19T10:39:34;2.07;;;0.90;;
12484;SDS011;6307;46.804;11.580;2022-08-19T10:42:05;2.80;;;0.97;;
12484;SDS011;6307;46.804;11.580;2022-08-19T10:44:35;1.33;;;0.80;;
12484;SDS011;6307;46.804;11.580;2022-08-19T10:47:02;1.27;;;0.80;;
12484;SDS011;6307;46.804;11.580;2022-08-19T10:49:29;2.17;;;0.70;;
12484;SDS011;6307;46.804;11.580;2022-08-19T10:51:57;0.90;;;0.77;;
12484;SDS011;6307;46.804;11.580;2022-08-19T10:54:42;0.90;;;0.70;;
12484;SDS011;6307;46.804;11.580;2022-08-19T10:57:30;2.00;;;0.83;;
12484;SDS011;6307;46.804;11.580;2022-08-19T10:59:57;1.73;;;0.70;;
12484;SDS011;6307;46.804;11.580;2022-08-19T11:02:23;1.67;;;0.60;;
12484;SDS011;6307;46.804;11.580;2022-08-19T11:04:49;1.60;;;0.83;;
12484;SDS011;6307;46.804;11.580;2022-08-19T11:07:16;1.17;;;0.57;;
12484;SDS011;6307;46.804;11.580;2022-08-19T11:09:43;2.30;;;0.60;;
12484;SDS011;6307;46.804;11.580;2022-08-19T11:12:11;1.83;;;0.70;;
12484;SDS011;6307;46.804;11.580;2022-08-19T11:14:38;1.53;;;0.70;;
12484;SDS011;6307;46.804;11.580;2022-08-19T11:17:05;2.63;;;0.80;;
12484;SDS011;6307;46.804;11.580;2022-08-19T11:19:32;0.93;;;0.70;;
12484;SDS011;6307;46.804;11.580;2022-08-19T11:21:58;0.97;;;0.60;;
12484;SDS011;6307;46.804;11.580;2022-08-19T11:24:27;4.37;;;0.80;;
12484;SDS011;6307;46.804;11.580;2022-08-19T11:26:59;1.10;;;0.70;;
12484;SDS011;6307;46.804;11.580;2022-08-19T11:29:34;1.53;;;0.80;;
12484;SDS011;6307;46.804;11.580;2022-08-19T11:32:05;1.80;;;0.70;;
12484;SDS011;6307;46.804;11.580;2022-08-19T11:34:35;1.17;;;0.60;;
12484;SDS011;6307;46.804;11.580;2022-08-19T11:37:02;5.40;;;0.93;;
12484;SDS011;6307;46.804;11.580;2022-08-19T11:39:31;3.13;;;1.10;;
12484;SDS011;6307;46.804;11.580;2022-08-19T11:41:59;1.83;;;0.77;;
12484;SDS011;6307;46.804;11.580;2022-08-19T11:44:27;1.00;;;0.60;;
12484;SDS011;6307;46.804;11.580;2022-08-19T11:46:55;2.33;;;0.80;;
12484;SDS011;6307;46.804;11.580;2022-08-19T11:49:22;1.63;;;0.80;;
12484;SDS011;6307;46.804;11.580;2022-08-19T11:51:48;2.63;;;0.80;;
12484;SDS011;6307;46.804;11.580;2022-08-19T11:54:15;1.50;;;0.73;;
12484;SDS011;6307;46.804;11.580;2022-08-19T11:56:42;2.47;;;1.00;;
12484;SDS011;6307;46.804;11.580;2022-08-19T11:59:11;2.73;;;0.70;;
12484;SDS011;6307;46.804;11.580;2022-08-19T12:01:37;1.33;;;0.77;;
12484;SDS011;6307;46.804;11.580;2022-08-19T12:04:05;2.83;;;0.83;;
12484;SDS011;6307;46.804;11.580;2022-08-19T12:06:32;1.27;;;0.63;;
12484;SDS011;6307;46.804;11.580;2022-08-19T12:09:00;3.13;;;0.77;;
12484;SDS011;6307;46.804;11.580;2022-08-19T12:11:32;1.90;;;0.60;;
12484;SDS011;6307;46.804;11.580;2022-08-19T12:13:58;1.30;;;0.80;;
12484;SDS011;6307;46.804;11.580;2022-08-19T12:16:25;0.90;;;0.50;;
12484;SDS011;6307;46.804;11.580;2022-08-19T12:18:54;1.53;;;0.80;;
12484;SDS011;6307;46.804;11.580;2022-08-19T12:21:24;1.03;;;0.67;;
12484;SDS011;6307;46.804;11.580;2022-08-19T12:23:55;1.93;;;0.90;;
12484;SDS011;6307;46.804;11.580;2022-08-19T12:26:24;1.43;;;0.77;;
12484;SDS011;6307;46.804;11.580;2022-08-19T12:28:52;3.33;;;0.80;;
12484;SDS011;6307;46.804;11.580;2022-08-19T12:31:19;2.37;;;0.90;;
12484;SDS011;6307;46.804;11.580;2022-08-19T12:33:46;1.70;;;0.67;;
12484;SDS011;6307;46.804;11.580;2022-08-19T12:36:14;1.47;;;0.97;;
12484;SDS011;6307;46.804;11.580;2022-08-19T12:38:42;1.00;;;0.60;;
12484;SDS011;6307;46.804;11.580;2022-08-19T12:41:11;2.57;;;0.80;;
12484;SDS011;6307;46.804;11.580;2022-08-19T12:43:42;3.00;;;0.90;;
12484;SDS011;6307;46.804;11.580;2022-08-19T12:46:09;2.67;;;1.00;;
12484;SDS011;6307;46.804;11.580;2022-08-19T12:48:36;2.00;;;0.70;;
12484;SDS011;6307;46.804;11.580;2022-08-19T12:51:07;1.47;;;0.87;;
12484;SDS011;6307;46.804;11.580;2022-08-19T12:53:37;1.90;;;0.90;;
12484;SDS011;6307;46.804;11.580;2022-08-19T12:56:04;1.43;;;0.70;;
12484;SDS011;6307;46.804;11.580;2022-08-19T12:58:31;3.17;;;0.83;;
12484;SDS011;6307;46.804;11.580;2022-08-19T13:00:59;4.27;;;0.93;;
12484;SDS011;6307;46.804;11.580;2022-08-19T13:03:32;2.77;;;1.03;;
12484;SDS011;6307;46.804;11.580;2022-08-19T13:05:58;1.00;;;0.70;;
12484;SDS011;6307;46.804;11.580;2022-08-19T13:08:24;2.40;;;0.70;;
12484;SDS011;6307;46.804;11.580;2022-08-19T13:10:50;1.53;;;0.60;;
12484;SDS011;6307;46.804;11.580;2022-08-19T13:13:18;1.43;;;0.70;;
12484;SDS011;6307;46.804;11.580;2022-08-19T13:15:44;1.17;;;0.80;;
12484;SDS011;6307;46.804;11.580;2022-08-19T13:18:13;1.40;;;0.60;;
12484;SDS011;6307;46.804;11.580;2022-08-19T13:20:40;2.33;;;0.70;;
12484;SDS011;6307;46.804;11.580;2022-08-19T13:23:07;1.53;;;0.70;;
12484;SDS011;6307;46.804;11.580;2022-08-19T13:25:34;1.93;;;1.00;;
12484;SDS011;6307;46.804;11.580;2022-08-19T13:28:01;1.00;;;0.60;;
12484;SDS011;6307;46.804;11.580;2022-08-19T13:30:28;1.90;;;0.70;;
12484;SDS011;6307;46.804;11.580;2022-08-19T13:33:13;6.30;;;0.87;;
12484;SDS011;6307;46.804;11.580;2022-08-19T13:35:44;1.53;;;0.77;;
12484;SDS011;6307;46.804;11.580;2022-08-19T13:38:15;3.17;;;0.90;;
12484;SDS011;6307;46.804;11.580;2022-08-19T13:40:45;1.90;;;0.80;;
12484;SDS011;6307;46.804;11.580;2022-08-19T13:43:12;1.97;;;0.80;;
12484;SDS011;6307;46.804;11.580;2022-08-19T13:45:40;1.23;;;0.70;;
12484;SDS011;6307;46.804;11.580;2022-08-19T13:48:06;1.87;;;0.80;;
12484;SDS011;6307;46.804;11.580;2022-08-19T13:50:35;2.33;;;0.57;;
12484;SDS011;6307;46.804;11.580;2022-08-19T13:53:09;4.97;;;1.50;;
12484;SDS011;6307;46.804;11.580;2022-08-19T13:55:37;5.23;;;0.90;;
12484;SDS011;6307;46.804;11.580;2022-08-19T13:58:05;0.93;;;0.60;;
12484;SDS011;6307;46.804;11.580;2022-08-19T14:00:36;7.40;;;1.00;;
12484;SDS011;6307;46.804;11.580;2022-08-19T14:03:06;2.60;;;1.00;;
12484;SDS011;6307;46.804;11.580;2022-08-19T14:05:33;3.20;;;0.80;;
12484;SDS011;6307;46.804;11.580;2022-08-19T14:07:59;3.93;;;1.00;;
12484;SDS011;6307;46.804;11.580;2022-08-19T14:10:26;3.17;;;0.93;;
12484;SDS011;6307;46.804;11.580;2022-08-19T14:12:56;2.20;;;1.10;;
12484;SDS011;6307;46.804;11.580;2022-08-19T14:15:25;1.57;;;1.17;;
12484;SDS011;6307;46.804;11.580;2022-08-19T14:17:52;3.40;;;0.90;;
12484;SDS011;6307;46.804;11.580;2022-08-19T14:20:19;1.47;;;0.87;;
12484;SDS011;6307;46.804;11.580;2022-08-19T14:22:47;3.43;;;1.10;;
12484;SDS011;6307;46.804;11.580;2022-08-19T14:25:16;4.10;;;1.03;;
12484;SDS011;6307;46.804;11.580;2022-08-19T14:27:46;2.40;;;1.10;;
12484;SDS011;6307;46.804;11.580;2022-08-19T14:30:15;1.93;;;1.00;;
12484;SDS011;6307;46.804;11.580;2022-08-19T14:32:46;2.57;;;1.00;;
12484;SDS011;6307;46.804;11.580;2022-08-19T14:35:13;1.57;;;1.00;;
12484;SDS011;6307;46.804;11.580;2022-08-19T14:37:43;1.43;;;0.80;;
12484;SDS011;6307;46.804;11.580;2022-08-19T14:40:12;3.70;;;1.17;;
12484;SDS011;6307;46.804;11.580;2022-08-19T14:42:42;1.77;;;0.90;;
12484;SDS011;6307;46.804;11.580;2022-08-19T14:45:09;1.50;;;1.03;;
12484;SDS011;6307;46.804;11.580;2022-08-19T14:47:36;1.87;;;0.97;;
12484;SDS011;6307;46.804;11.580;2022-08-19T14:50:04;1.53;;;0.90;;
12484;SDS011;6307;46.804;11.580;2022-08-19T14:52:34;2.20;;;1.07;;
12484;SDS011;6307;46.804;11.580;2022-08-19T14:55:01;3.03;;;0.90;;
12484;SDS011;6307;46.804;11.580;2022-08-19T14:57:29;1.90;;;0.90;;
12484;SDS011;6307;46.804;11.580;2022-08-19T14:59:55;1.47;;;0.97;;
12484;SDS011;6307;46.804;11.580;2022-08-19T15:02:22;2.57;;;1.00;;
12484;SDS011;6307;46.804;11.580;2022-08-19T15:04:48;3.60;;;1.20;;
12484;SDS011;6307;46.804;11.580;2022-08-19T15:07:15;2.50;;;0.80;;
12484;SDS011;6307;46.804;11.580;2022-08-19T15:09:42;2.10;;;0.83;;
12484;SDS011;6307;46.804;11.580;2022-08-19T15:12:08;2.97;;;0.87;;
12484;SDS011;6307;46.804;11.580;2022-08-19T15:14:35;1.87;;;0.80;;